Aviation Digital Data Service (ADDS)

Output produced by METARs form (1715 UTC 24 February 2017)
found at http://aviationweather.gov/adds/metars/
 
KCLT 241457Z 2415/2512 16005KT P6SM FEW035 SCT250 
     FM242300 17005KT P6SM SCT200 
     FM250800 18006KT P6SM SCT060 BKN110